createdAt,value
2023-09-23T00:00:16.450Z,13.81
2023-09-23T00:01:16.566Z,13.81
2023-09-23T00:02:16.547Z,13.84
2023-09-23T00:03:16.491Z,13.84
2023-09-23T00:04:16.529Z,13.88
2023-09-23T00:05:16.737Z,13.87
2023-09-23T00:06:16.385Z,13.89
2023-09-23T00:07:16.469Z,13.91
2023-09-23T00:08:16.377Z,13.91
2023-09-23T00:09:16.368Z,13.92
2023-09-23T00:10:16.367Z,13.92
2023-09-23T00:11:16.390Z,13.94
2023-09-23T00:12:16.337Z,13.95
2023-09-23T00:13:16.340Z,13.98
2023-09-23T00:14:16.358Z,13.99
2023-09-23T00:15:16.324Z,13.99
2023-09-23T00:16:16.404Z,14.02
2023-09-23T00:17:16.344Z,14.04
2023-09-23T00:18:16.272Z,14.06
2023-09-23T00:19:16.250Z,14.06
2023-09-23T00:20:16.310Z,14.06
2023-09-23T00:21:16.234Z,14.09
2023-09-23T00:22:16.225Z,14.07
2023-09-23T00:23:16.212Z,14.06
2023-09-23T00:24:16.201Z,14.04
2023-09-23T00:25:16.178Z,14.06
2023-09-23T00:26:16.251Z,14.04
2023-09-23T00:27:16.169Z,14.04
2023-09-23T00:28:16.410Z,14.07
2023-09-23T00:29:16.145Z,14.06
2023-09-23T00:30:16.136Z,14.07
2023-09-23T00:31:16.336Z,14.07
2023-09-23T00:32:16.242Z,14.07
2023-09-23T00:33:16.091Z,14.06
2023-09-23T00:34:16.108Z,14.07
2023-09-23T00:35:16.094Z,14.07
2023-09-23T00:36:16.056Z,14.06
2023-09-23T00:37:16.114Z,14.06
2023-09-23T00:38:16.127Z,14.02
2023-09-23T00:39:16.017Z,14.06
2023-09-23T00:40:16.002Z,14.04
2023-09-23T00:41:16.034Z,14.04
2023-09-23T00:42:16.029Z,14.06
2023-09-23T00:43:15.966Z,14.06
2023-09-23T00:44:16.073Z,14.07
2023-09-23T00:45:15.980Z,14.07
2023-09-23T00:46:16.037Z,14.09
2023-09-23T00:47:15.957Z,14.09
2023-09-23T00:48:15.915Z,14.10
2023-09-23T00:49:15.973Z,14.10
2023-09-23T00:50:15.990Z,14.10
2023-09-23T00:51:15.895Z,14.10
2023-09-23T00:52:15.931Z,14.12
2023-09-23T00:53:15.992Z,14.12
2023-09-23T00:54:15.901Z,14.12
2023-09-23T00:55:15.853Z,14.12
2023-09-23T00:56:15.852Z,14.12
2023-09-23T00:57:15.858Z,14.12
2023-09-23T00:58:15.827Z,14.12
2023-09-23T00:59:15.837Z,14.13
2023-09-23T01:00:15.835Z,14.10
2023-09-23T01:01:15.881Z,14.12
2023-09-23T01:02:15.797Z,14.13
2023-09-23T01:03:15.852Z,14.12
2023-09-23T01:04:15.824Z,14.13
2023-09-23T01:05:15.781Z,14.12
2023-09-23T01:06:15.816Z,14.12
2023-09-23T01:07:15.776Z,14.12
2023-09-23T01:08:15.730Z,14.13
2023-09-23T01:09:15.774Z,14.12
2023-09-23T01:10:15.713Z,14.12
2023-09-23T01:11:15.778Z,14.13
2023-09-23T01:12:15.718Z,14.13
2023-09-23T01:13:15.669Z,14.12
2023-09-23T01:14:15.659Z,14.13
2023-09-23T01:15:15.620Z,14.13
2023-09-23T01:16:15.690Z,14.14
2023-09-23T01:17:15.660Z,14.13
2023-09-23T01:18:15.648Z,14.14
2023-09-23T01:19:15.652Z,14.14
2023-09-23T01:20:15.633Z,14.14
2023-09-23T01:21:15.585Z,14.14
2023-09-23T01:22:15.569Z,14.16
2023-09-23T01:23:15.666Z,14.16
2023-09-23T01:24:15.524Z,14.14
2023-09-23T01:25:15.559Z,14.16
2023-09-23T01:26:15.574Z,14.16
2023-09-23T01:27:15.536Z,14.17
2023-09-23T01:28:15.537Z,14.17
2023-09-23T01:29:15.563Z,14.16
2023-09-23T01:30:15.473Z,14.17
2023-09-23T01:31:15.520Z,14.16
2023-09-23T01:32:15.465Z,14.16
2023-09-23T01:33:15.633Z,14.16
2023-09-23T01:34:15.473Z,14.17
2023-09-23T01:35:15.439Z,14.16
2023-09-23T01:36:15.461Z,14.16
2023-09-23T01:37:15.382Z,14.16
2023-09-23T01:38:15.389Z,14.17
2023-09-23T01:39:15.401Z,14.17
2023-09-23T01:40:15.441Z,14.16
2023-09-23T01:41:15.483Z,14.17
2023-09-23T01:42:15.344Z,14.16
2023-09-23T01:43:15.412Z,14.16
2023-09-23T01:44:15.340Z,14.17
2023-09-23T01:45:15.335Z,14.16
2023-09-23T01:46:15.292Z,14.19
2023-09-23T01:47:15.418Z,14.17
2023-09-23T01:48:15.319Z,14.19
2023-09-23T01:49:15.244Z,14.17
2023-09-23T01:50:15.408Z,14.17
2023-09-23T01:51:15.252Z,14.20
2023-09-23T01:52:15.262Z,14.17
2023-09-23T01:53:15.341Z,14.19
2023-09-23T01:54:15.313Z,14.14
2023-09-23T01:55:15.178Z,14.12
2023-09-23T01:56:15.304Z,14.09
2023-09-23T01:57:15.233Z,14.07
2023-09-23T01:58:15.145Z,14.06
2023-09-23T01:59:15.165Z,14.07
2023-09-23T02:00:15.170Z,14.07
2023-09-23T02:01:15.125Z,14.07
2023-09-23T02:02:15.182Z,14.07
2023-09-23T02:03:15.155Z,14.07
2023-09-23T02:04:15.084Z,14.04
2023-09-23T02:05:15.114Z,14.06
2023-09-23T02:06:15.081Z,14.01
2023-09-23T02:07:15.059Z,14.04
2023-09-23T02:08:15.098Z,14.01
2023-09-23T02:09:15.091Z,13.99
2023-09-23T02:10:15.041Z,13.98
2023-09-23T02:11:15.063Z,13.96
2023-09-23T02:12:14.974Z,13.96
2023-09-23T02:13:14.999Z,13.95
2023-09-23T02:14:15.092Z,13.94
2023-09-23T02:15:14.989Z,13.94
2023-09-23T02:16:15.045Z,13.92
2023-09-23T02:17:15.112Z,13.94
2023-09-23T02:18:14.941Z,13.91
2023-09-23T02:19:15.192Z,13.91
2023-09-23T02:20:15.038Z,13.89
2023-09-23T02:21:14.885Z,13.89
2023-09-23T02:22:14.879Z,13.88
2023-09-23T02:23:16.290Z,13.87
2023-09-23T02:24:14.939Z,13.87
2023-09-23T02:25:14.852Z,13.87
2023-09-23T02:26:14.916Z,13.87
2023-09-23T02:27:14.870Z,13.84
2023-09-23T02:28:14.907Z,13.83
2023-09-23T02:29:14.929Z,13.83
2023-09-23T02:30:14.844Z,13.81
2023-09-23T02:31:14.830Z,13.83
2023-09-23T02:32:14.894Z,13.83
2023-09-23T02:33:14.765Z,13.83
2023-09-23T02:34:14.773Z,13.84
2023-09-23T02:35:14.788Z,13.83
2023-09-23T02:36:14.804Z,13.84
2023-09-23T02:37:14.781Z,13.84
2023-09-23T02:38:14.762Z,13.87
2023-09-23T02:39:14.777Z,13.87
2023-09-23T02:40:14.693Z,13.87
2023-09-23T02:41:14.751Z,13.88
2023-09-23T02:42:14.673Z,13.88
2023-09-23T02:43:14.650Z,13.89
2023-09-23T02:44:14.705Z,13.91
2023-09-23T02:45:14.618Z,13.91
2023-09-23T02:46:14.623Z,13.92
2023-09-23T02:47:14.668Z,13.95
2023-09-23T02:48:14.662Z,13.96
2023-09-23T02:49:14.649Z,13.99
2023-09-23T02:50:14.903Z,13.99
2023-09-23T02:51:14.625Z,14.01
2023-09-23T02:52:14.568Z,14.01
2023-09-23T02:53:14.748Z,14.02
2023-09-23T02:54:14.564Z,14.02
2023-09-23T02:55:14.499Z,14.04
2023-09-23T02:56:14.633Z,14.04
2023-09-23T02:57:14.514Z,14.06
2023-09-23T02:58:14.608Z,14.06
2023-09-23T02:59:14.677Z,14.07
2023-09-23T03:00:14.460Z,14.07
2023-09-23T03:01:14.440Z,14.07
2023-09-23T03:02:14.594Z,14.09
2023-09-23T03:03:14.525Z,14.10
2023-09-23T03:04:14.536Z,14.10
2023-09-23T03:05:14.519Z,14.12
2023-09-23T03:06:14.380Z,14.12
2023-09-23T03:07:14.410Z,14.12
2023-09-23T03:08:14.456Z,14.13
2023-09-23T03:09:14.373Z,14.13
2023-09-23T03:10:14.412Z,14.13
2023-09-23T03:11:14.485Z,14.14
2023-09-23T03:12:14.430Z,14.16
2023-09-23T03:13:14.509Z,14.14
2023-09-23T03:14:14.443Z,14.14
2023-09-23T03:15:14.297Z,14.17
2023-09-23T03:16:14.456Z,14.17
2023-09-23T03:17:14.381Z,14.19
2023-09-23T03:18:14.462Z,14.17
2023-09-23T03:19:14.255Z,14.17
2023-09-23T03:20:14.290Z,14.19
2023-09-23T03:21:14.309Z,14.19
2023-09-23T03:22:14.202Z,14.19
2023-09-23T03:23:14.362Z,14.20
2023-09-23T03:24:14.224Z,14.20
2023-09-23T03:25:14.176Z,14.24
2023-09-23T03:26:14.229Z,14.21
2023-09-23T03:27:14.204Z,14.24
2023-09-23T03:28:14.135Z,14.24
2023-09-23T03:29:14.109Z,14.24
2023-09-23T03:30:14.116Z,14.24
2023-09-23T03:31:14.171Z,14.24
2023-09-23T03:32:14.141Z,14.21
2023-09-23T03:33:14.120Z,14.21
2023-09-23T03:34:14.104Z,14.24
2023-09-23T03:35:14.117Z,14.21
2023-09-23T03:36:14.041Z,14.20
2023-09-23T03:37:14.055Z,14.16
2023-09-23T03:38:14.043Z,14.12
2023-09-23T03:39:14.020Z,14.12
2023-09-23T03:40:14.029Z,14.12
2023-09-23T03:41:14.070Z,14.13
2023-09-23T03:42:13.958Z,14.14
2023-09-23T03:43:13.980Z,14.14
2023-09-23T03:44:14.012Z,14.17
2023-09-23T03:45:13.957Z,14.14
2023-09-23T03:46:13.969Z,14.16
2023-09-23T03:47:13.952Z,14.16
2023-09-23T03:48:13.925Z,14.17
2023-09-23T03:49:13.925Z,14.17
2023-09-23T03:50:13.965Z,14.19
2023-09-23T03:51:13.861Z,14.19
2023-09-23T03:52:13.856Z,14.19
2023-09-23T03:53:14.147Z,14.20
2023-09-23T03:54:13.882Z,14.20
2023-09-23T03:55:13.828Z,14.19
2023-09-23T03:56:13.879Z,14.20
2023-09-23T03:57:13.789Z,14.21
2023-09-23T03:58:13.841Z,14.20
2023-09-23T03:59:13.835Z,14.19
2023-09-23T04:00:13.780Z,14.19
2023-09-23T04:01:13.763Z,14.19
2023-09-23T04:02:13.796Z,14.19
2023-09-23T04:03:13.798Z,14.19
2023-09-23T04:04:13.748Z,14.17
2023-09-23T04:05:13.804Z,14.16
2023-09-23T04:06:13.710Z,14.14
2023-09-23T04:07:13.696Z,14.13
2023-09-23T04:08:13.689Z,14.12
2023-09-23T04:09:13.764Z,14.10
2023-09-23T04:10:13.709Z,14.09
2023-09-23T04:11:13.669Z,14.07
2023-09-23T04:12:13.719Z,14.06
2023-09-23T04:13:13.666Z,14.02
2023-09-23T04:14:13.668Z,13.99
2023-09-23T04:15:13.606Z,13.96
2023-09-23T04:16:13.750Z,13.95
2023-09-23T04:17:13.678Z,13.95
2023-09-23T04:18:13.561Z,13.94
2023-09-23T04:19:13.584Z,13.95
2023-09-23T04:20:13.639Z,13.94
2023-09-23T04:21:13.541Z,13.95
2023-09-23T04:22:13.571Z,13.95
2023-09-23T04:23:13.572Z,13.98
2023-09-23T04:24:13.520Z,13.96
2023-09-23T04:25:13.542Z,13.98
2023-09-23T04:26:13.606Z,13.98
2023-09-23T04:27:13.495Z,13.99
2023-09-23T04:28:13.479Z,13.99
2023-09-23T04:29:13.503Z,13.99
2023-09-23T04:30:13.458Z,13.99
2023-09-23T04:31:13.449Z,14.01
2023-09-23T04:32:13.475Z,13.99
2023-09-23T04:33:13.666Z,14.01
2023-09-23T04:34:13.404Z,14.01
2023-09-23T04:35:13.371Z,14.01
2023-09-23T04:36:13.441Z,13.99
2023-09-23T04:37:13.453Z,14.01
2023-09-23T04:38:13.415Z,13.99
2023-09-23T04:39:13.308Z,14.01
2023-09-23T04:40:13.523Z,14.01
2023-09-23T04:41:13.386Z,13.99
2023-09-23T04:42:13.323Z,13.99
2023-09-23T04:43:13.342Z,13.98
2023-09-23T04:44:13.286Z,13.98
2023-09-23T04:45:13.286Z,13.98
2023-09-23T04:46:13.290Z,13.95
2023-09-23T04:47:13.289Z,13.96
2023-09-23T04:48:13.380Z,13.98
2023-09-23T04:49:13.288Z,13.96
2023-09-23T04:50:13.749Z,13.99
2023-09-23T04:51:13.295Z,13.96
2023-09-23T04:52:13.226Z,13.99
2023-09-23T04:53:13.317Z,13.98
2023-09-23T04:54:13.210Z,13.98
2023-09-23T04:55:13.169Z,13.96
2023-09-23T04:56:13.199Z,13.96
2023-09-23T04:57:13.144Z,13.96
2023-09-23T04:58:13.136Z,13.95
2023-09-23T04:59:13.141Z,13.96
2023-09-23T05:00:13.191Z,13.95
2023-09-23T05:01:13.208Z,13.98
2023-09-23T05:02:13.101Z,13.95
2023-09-23T05:03:13.129Z,13.96
2023-09-23T05:04:13.129Z,13.96
2023-09-23T05:05:13.485Z,13.96
2023-09-23T05:06:13.070Z,13.98
2023-09-23T05:07:13.055Z,13.98
2023-09-23T05:08:13.120Z,13.96
2023-09-23T05:09:13.093Z,13.96
2023-09-23T05:10:13.006Z,13.95
2023-09-23T05:11:13.143Z,13.94
2023-09-23T05:12:13.021Z,13.94
2023-09-23T05:13:12.968Z,13.92
2023-09-23T05:14:13.059Z,13.92
2023-09-23T05:15:12.929Z,13.92
2023-09-23T05:16:13.017Z,13.92
2023-09-23T05:17:12.986Z,13.92
2023-09-23T05:18:12.947Z,13.91
2023-09-23T05:19:12.937Z,13.89
2023-09-23T05:20:12.906Z,13.91
2023-09-23T05:21:12.866Z,13.91
2023-09-23T05:22:12.888Z,13.92
2023-09-23T05:23:13.037Z,13.92
2023-09-23T05:24:12.865Z,13.92
2023-09-23T05:25:12.910Z,13.96
2023-09-23T05:26:12.950Z,13.96
2023-09-23T05:27:12.848Z,13.99
2023-09-23T05:28:12.795Z,13.98
2023-09-23T05:29:12.882Z,14.01
2023-09-23T05:30:12.773Z,14.01
2023-09-23T05:31:12.781Z,14.02
2023-09-23T05:32:12.827Z,14.02
2023-09-23T05:33:12.870Z,14.02
2023-09-23T05:34:12.736Z,14.02
2023-09-23T05:35:12.823Z,14.02
2023-09-23T05:36:12.716Z,14.02
2023-09-23T05:37:12.712Z,14.01
2023-09-23T05:38:12.701Z,14.01
2023-09-23T05:39:12.655Z,14.01
2023-09-23T05:40:12.724Z,14.02
2023-09-23T05:41:12.689Z,14.02
2023-09-23T05:42:12.649Z,14.02
2023-09-23T05:43:12.746Z,14.04
2023-09-23T05:44:12.638Z,14.04
2023-09-23T05:45:12.626Z,14.06
2023-09-23T05:46:12.684Z,14.06
2023-09-23T05:47:12.611Z,14.07
2023-09-23T05:48:12.632Z,14.09
2023-09-23T05:49:12.573Z,14.10
2023-09-23T05:50:12.631Z,14.10
2023-09-23T05:51:12.605Z,14.10
2023-09-23T05:52:12.512Z,14.13
2023-09-23T05:53:12.556Z,14.10
2023-09-23T05:54:12.524Z,14.07
2023-09-23T05:55:12.497Z,14.09
2023-09-23T05:56:12.504Z,14.09
2023-09-23T05:57:12.502Z,14.10
2023-09-23T05:58:12.444Z,14.14
2023-09-23T05:59:12.454Z,14.16
2023-09-23T06:00:12.448Z,14.16
2023-09-23T06:01:12.460Z,14.20
2023-09-23T06:02:12.440Z,14.24
2023-09-23T06:03:12.516Z,14.27
2023-09-23T06:04:12.379Z,14.29
2023-09-23T06:05:12.380Z,14.31
2023-09-23T06:06:12.351Z,14.34
2023-09-23T06:07:12.375Z,14.34
2023-09-23T06:08:12.373Z,14.35
2023-09-23T06:09:12.387Z,14.37
2023-09-23T06:10:18.316Z,14.39
2023-09-23T06:11:12.403Z,14.39
2023-09-23T06:12:12.380Z,14.39
2023-09-23T06:13:12.316Z,14.38
2023-09-23T06:14:12.347Z,14.38
2023-09-23T06:15:12.281Z,14.39
2023-09-23T06:16:12.370Z,14.39
2023-09-23T06:17:12.269Z,14.44
2023-09-23T06:18:12.456Z,14.44
2023-09-23T06:19:13.077Z,14.46
2023-09-23T06:20:12.243Z,14.44
2023-09-23T06:21:12.241Z,14.43
2023-09-23T06:22:12.198Z,14.38
2023-09-23T06:23:12.217Z,14.37
2023-09-23T06:24:12.190Z,14.37
2023-09-23T06:25:12.173Z,14.37
2023-09-23T06:26:12.237Z,14.37
2023-09-23T06:27:12.157Z,14.34
2023-09-23T06:28:12.120Z,14.32
2023-09-23T06:29:12.194Z,14.34
2023-09-23T06:30:12.078Z,14.34
2023-09-23T06:31:12.114Z,14.34
2023-09-23T06:32:12.130Z,14.32
2023-09-23T06:33:12.117Z,14.34
2023-09-23T06:34:12.086Z,14.34
2023-09-23T06:35:12.184Z,14.35
2023-09-23T06:36:12.044Z,14.38
2023-09-23T06:37:12.042Z,14.39
2023-09-23T06:38:12.118Z,14.42
2023-09-23T06:39:12.019Z,14.43
2023-09-23T06:40:12.126Z,14.43
2023-09-23T06:41:12.015Z,14.43
2023-09-23T06:42:11.981Z,14.44
2023-09-23T06:43:11.997Z,14.43
2023-09-23T06:44:12.027Z,14.44
2023-09-23T06:45:11.926Z,14.46
2023-09-23T06:46:11.962Z,14.49
2023-09-23T06:47:12.051Z,14.50
2023-09-23T06:48:12.087Z,14.53
2023-09-23T06:49:11.888Z,14.54
2023-09-23T06:50:11.949Z,14.57
2023-09-23T06:51:11.884Z,14.56
2023-09-23T06:52:11.873Z,14.61
2023-09-23T06:53:11.871Z,14.61
2023-09-23T06:54:11.822Z,14.64
2023-09-23T06:55:11.846Z,14.62
2023-09-23T06:56:11.814Z,14.64
2023-09-23T06:57:11.877Z,14.65
2023-09-23T06:58:11.783Z,14.65
2023-09-23T06:59:11.860Z,14.67
2023-09-23T07:00:11.808Z,14.65
2023-09-23T07:01:11.740Z,14.68
2023-09-23T07:02:11.799Z,14.68
2023-09-23T07:03:11.924Z,14.67
2023-09-23T07:04:11.818Z,14.65
2023-09-23T07:05:11.777Z,14.67
2023-09-23T07:06:11.703Z,14.69
2023-09-23T07:07:11.733Z,14.75
2023-09-23T07:08:11.718Z,14.69
2023-09-23T07:09:11.688Z,14.68
2023-09-23T07:10:11.650Z,14.69
2023-09-23T07:11:11.771Z,14.75
2023-09-23T07:12:11.674Z,14.75
2023-09-23T07:13:13.117Z,14.68
2023-09-23T07:14:11.698Z,14.69
2023-09-23T07:15:11.620Z,14.74
2023-09-23T07:16:11.622Z,14.80
2023-09-23T07:17:11.681Z,14.87
2023-09-23T07:18:11.598Z,14.93
2023-09-23T07:19:11.570Z,14.83
2023-09-23T07:20:11.622Z,14.74
2023-09-23T07:21:11.519Z,14.67
2023-09-23T07:22:11.634Z,14.68
2023-09-23T07:23:11.587Z,14.72
2023-09-23T07:24:13.598Z,14.80
2023-09-23T07:25:11.490Z,14.84
2023-09-23T07:26:11.542Z,14.81
2023-09-23T07:27:11.520Z,14.83
2023-09-23T07:28:11.472Z,14.83
2023-09-23T07:29:11.572Z,14.84
2023-09-23T07:30:11.467Z,14.88
2023-09-23T07:31:11.486Z,14.94
2023-09-23T07:32:11.525Z,14.99
2023-09-23T07:33:11.440Z,15.05
2023-09-23T07:34:11.387Z,15.08
2023-09-23T07:35:11.490Z,15.01
2023-09-23T07:36:11.381Z,14.94
2023-09-23T07:37:11.338Z,14.94
2023-09-23T07:38:11.445Z,14.94
2023-09-23T07:39:11.421Z,14.94
2023-09-23T07:40:11.391Z,14.95
2023-09-23T07:41:11.366Z,14.99
2023-09-23T07:42:12.034Z,14.99
2023-09-23T07:43:11.307Z,15.02
2023-09-23T07:44:11.298Z,15.01
2023-09-23T07:45:11.252Z,15.01
2023-09-23T07:46:11.353Z,15.03
2023-09-23T07:47:11.251Z,15.03
2023-09-23T07:48:11.250Z,15.05
2023-09-23T07:49:11.298Z,15.05
2023-09-23T07:50:11.261Z,15.05
2023-09-23T07:51:11.283Z,14.94
2023-09-23T07:52:11.218Z,14.91
2023-09-23T07:53:11.214Z,14.95
2023-09-23T07:54:11.154Z,14.99
2023-09-23T07:55:11.170Z,15.03
2023-09-23T07:56:11.141Z,15.05
2023-09-23T07:57:11.208Z,15.09
2023-09-23T07:58:11.171Z,15.09
2023-09-23T07:59:11.157Z,15.02
2023-09-23T08:00:11.134Z,15.02
2023-09-23T08:01:11.130Z,15.08
2023-09-23T08:02:11.155Z,15.12
2023-09-23T08:03:11.133Z,15.08
2023-09-23T08:04:11.104Z,15.03
2023-09-23T08:05:11.133Z,15.03
2023-09-23T08:06:11.153Z,15.12
2023-09-23T08:07:11.029Z,15.20
2023-09-23T08:08:11.161Z,15.30
2023-09-23T08:09:10.976Z,15.39
2023-09-23T08:10:10.988Z,15.48
2023-09-23T08:11:10.997Z,15.56
2023-09-23T08:12:11.001Z,15.60
2023-09-23T08:13:11.005Z,15.64
2023-09-23T08:14:11.036Z,15.56
2023-09-23T08:15:10.995Z,15.60
2023-09-23T08:16:10.916Z,15.67
2023-09-23T08:17:10.966Z,15.74
2023-09-23T08:18:11.058Z,15.81
2023-09-23T08:19:10.897Z,15.86
2023-09-23T08:20:10.999Z,15.89
2023-09-23T08:21:10.890Z,15.89
2023-09-23T08:22:10.868Z,15.93
2023-09-23T08:23:10.837Z,15.93
2023-09-23T08:24:10.882Z,15.88
2023-09-23T08:25:10.874Z,15.93
2023-09-23T08:26:10.861Z,15.93
2023-09-23T08:27:10.780Z,15.92
2023-09-23T08:28:10.780Z,15.88
2023-09-23T08:29:10.804Z,15.88
2023-09-23T08:30:10.817Z,15.72
2023-09-23T08:31:10.836Z,15.64
2023-09-23T08:32:10.791Z,15.64
2023-09-23T08:33:10.938Z,15.66
2023-09-23T08:34:10.739Z,15.70
2023-09-23T08:35:10.763Z,15.76
2023-09-23T08:36:10.756Z,15.76
2023-09-23T08:37:10.691Z,15.76
2023-09-23T08:38:10.749Z,15.76
2023-09-23T08:39:10.667Z,15.72
2023-09-23T08:40:10.689Z,15.75
2023-09-23T08:41:10.780Z,15.82
2023-09-23T08:42:10.642Z,15.89
2023-09-23T08:43:10.638Z,15.94
2023-09-23T08:44:10.728Z,15.82
2023-09-23T08:45:10.740Z,15.79
2023-09-23T08:46:10.773Z,15.82
2023-09-23T08:47:11.488Z,15.86
2023-09-23T08:48:10.633Z,15.85
2023-09-23T08:49:10.567Z,15.86
2023-09-23T08:50:10.659Z,15.89
2023-09-23T08:51:10.533Z,15.85
2023-09-23T08:52:10.605Z,15.78
2023-09-23T08:53:10.569Z,15.68
2023-09-23T08:54:10.496Z,15.63
2023-09-23T08:55:15.363Z,15.67
2023-09-23T08:56:10.525Z,15.61
2023-09-23T08:57:10.442Z,15.64
2023-09-23T08:58:10.443Z,15.70
2023-09-23T08:59:10.490Z,15.76
2023-09-23T09:00:10.424Z,15.78
2023-09-23T09:01:10.492Z,15.84
2023-09-23T09:02:10.427Z,15.82
2023-09-23T09:03:10.416Z,15.78
2023-09-23T09:04:10.402Z,15.74
2023-09-23T09:05:10.582Z,15.74
2023-09-23T09:06:10.427Z,15.75
2023-09-23T09:07:10.400Z,15.76
2023-09-23T09:08:10.372Z,15.78
2023-09-23T09:09:10.331Z,15.81
2023-09-23T09:10:10.421Z,15.86
2023-09-23T09:11:10.452Z,15.85
2023-09-23T09:12:10.391Z,15.78
2023-09-23T09:13:10.324Z,15.79
2023-09-23T09:14:14.537Z,15.85
2023-09-23T09:15:10.249Z,15.93
2023-09-23T09:16:10.288Z,15.94
2023-09-23T09:17:10.341Z,16.01
2023-09-23T09:18:10.297Z,16.12
2023-09-23T09:19:10.223Z,16.07
2023-09-23T09:20:10.262Z,16.06
2023-09-23T09:21:10.201Z,16.06
2023-09-23T09:22:10.233Z,16.11
2023-09-23T09:23:10.171Z,16.16
2023-09-23T09:24:10.154Z,16.22
2023-09-23T09:25:10.158Z,16.34
2023-09-23T09:26:10.157Z,16.37
2023-09-23T09:27:10.142Z,16.38
2023-09-23T09:28:10.131Z,16.45
2023-09-23T09:29:10.106Z,16.52
2023-09-23T09:30:13.594Z,16.52
2023-09-23T09:31:10.094Z,16.50
2023-09-23T09:32:10.117Z,16.53
2023-09-23T09:33:10.087Z,16.56
2023-09-23T09:34:10.106Z,16.68
2023-09-23T09:35:10.089Z,16.71
2023-09-23T09:36:10.119Z,16.67
2023-09-23T09:37:10.029Z,16.68
2023-09-23T09:38:17.606Z,16.77
2023-09-23T09:39:10.233Z,16.93
2023-09-23T09:40:10.033Z,17.11
2023-09-23T09:41:09.988Z,17.25
2023-09-23T09:42:09.934Z,17.33
2023-09-23T09:43:09.963Z,17.30
2023-09-23T09:44:09.965Z,17.11
2023-09-23T09:45:09.937Z,17.10
2023-09-23T09:46:10.277Z,17.07
2023-09-23T09:47:09.953Z,17.11
2023-09-23T09:48:09.944Z,17.11
2023-09-23T09:49:09.914Z,17.07
2023-09-23T09:50:09.880Z,17.07
2023-09-23T09:51:09.915Z,17.08
2023-09-23T09:52:09.897Z,17.10
2023-09-23T09:53:09.892Z,17.15
2023-09-23T09:54:09.907Z,17.23
2023-09-23T09:55:09.838Z,17.22
2023-09-23T09:56:09.872Z,17.25
2023-09-23T09:57:09.839Z,17.23
2023-09-23T09:58:09.780Z,17.28
2023-09-23T09:59:09.805Z,17.32
2023-09-23T10:00:09.775Z,17.36
2023-09-23T10:01:09.756Z,17.38
2023-09-23T10:02:09.812Z,17.38
2023-09-23T10:03:10.046Z,17.48
2023-09-23T10:04:09.787Z,17.53
2023-09-23T10:05:09.712Z,17.64
2023-09-23T10:06:09.735Z,17.69
2023-09-23T10:07:09.725Z,17.64
2023-09-23T10:08:09.660Z,17.64
2023-09-23T10:09:09.667Z,17.55
2023-09-23T10:10:09.681Z,17.66
2023-09-23T10:11:09.638Z,17.71
2023-09-23T10:12:09.716Z,17.78
2023-09-23T10:13:09.647Z,17.74
2023-09-23T10:14:09.673Z,17.76
2023-09-23T10:15:09.621Z,17.71
2023-09-23T10:16:09.684Z,17.79
2023-09-23T10:17:09.713Z,17.79
2023-09-23T10:18:09.675Z,17.76
2023-09-23T10:19:09.651Z,17.78
2023-09-23T10:20:09.591Z,17.82
2023-09-23T10:21:09.534Z,17.73
2023-09-23T10:22:09.523Z,17.64
2023-09-23T10:23:09.561Z,17.74
2023-09-23T10:24:09.527Z,17.78
2023-09-23T10:25:09.521Z,17.73
2023-09-23T10:26:09.577Z,17.71
2023-09-23T10:27:09.456Z,17.73
2023-09-23T10:28:09.456Z,17.78
2023-09-23T10:29:09.485Z,17.82
2023-09-23T10:30:09.433Z,17.89
2023-09-23T10:31:09.503Z,17.84
2023-09-23T10:32:09.420Z,17.78
2023-09-23T10:33:09.440Z,17.79
2023-09-23T10:34:09.389Z,17.79
2023-09-23T10:35:09.399Z,17.76
2023-09-23T10:36:09.386Z,17.74
2023-09-23T10:37:09.372Z,17.62
2023-09-23T10:38:09.398Z,17.64
2023-09-23T10:39:09.321Z,17.71
2023-09-23T10:40:09.387Z,17.81
2023-09-23T10:41:09.325Z,17.73
2023-09-23T10:42:09.308Z,17.76
2023-09-23T10:43:09.335Z,17.76
2023-09-23T10:44:09.322Z,17.88
2023-09-23T10:45:09.261Z,18.00
2023-09-23T10:46:09.297Z,17.99
2023-09-23T10:47:09.228Z,17.97
2023-09-23T10:48:09.283Z,18.00
2023-09-23T10:49:09.246Z,17.94
2023-09-23T10:50:09.298Z,17.99
2023-09-23T10:51:09.190Z,18.07
2023-09-23T10:52:09.168Z,18.10
2023-09-23T10:53:09.189Z,18.10
2023-09-23T10:54:09.161Z,18.12
2023-09-23T10:55:09.140Z,18.13
2023-09-23T10:56:09.161Z,18.12
2023-09-23T10:57:09.132Z,18.02
2023-09-23T10:58:09.110Z,17.97
2023-09-23T10:59:09.182Z,17.94
2023-09-23T11:00:09.098Z,17.94
2023-09-23T11:01:09.083Z,17.82
2023-09-23T11:02:09.107Z,17.70
2023-09-23T11:03:09.198Z,17.71
2023-09-23T11:04:09.198Z,17.76
2023-09-23T11:05:09.083Z,17.73
2023-09-23T11:06:09.038Z,17.66
2023-09-23T11:07:09.025Z,17.69
2023-09-23T11:08:09.042Z,17.76
2023-09-23T11:09:09.005Z,17.82
2023-09-23T11:10:08.989Z,17.89
2023-09-23T11:11:08.997Z,17.92
2023-09-23T11:12:08.974Z,17.94
2023-09-23T11:13:08.952Z,17.91
2023-09-23T11:14:09.006Z,17.89
2023-09-23T11:15:08.916Z,17.88
2023-09-23T11:16:08.976Z,17.87
2023-09-23T11:17:08.939Z,17.91
2023-09-23T11:18:08.964Z,17.94
2023-09-23T11:19:08.889Z,17.92
2023-09-23T11:20:08.969Z,17.97
2023-09-23T11:21:08.898Z,18.03
2023-09-23T11:22:08.836Z,17.95
2023-09-23T11:23:08.844Z,18.02
2023-09-23T11:24:08.852Z,18.06
2023-09-23T11:25:08.914Z,18.09
2023-09-23T11:26:08.818Z,17.89
2023-09-23T11:27:08.834Z,17.94
2023-09-23T11:28:08.841Z,17.92
2023-09-23T11:29:08.820Z,17.89
2023-09-23T11:30:08.797Z,17.95
2023-09-23T11:31:08.787Z,18.00
2023-09-23T11:32:08.851Z,18.06
2023-09-23T11:33:08.760Z,18.12
2023-09-23T11:34:08.719Z,18.21
2023-09-23T11:35:08.713Z,18.21
2023-09-23T11:36:08.741Z,18.24
2023-09-23T11:37:08.694Z,18.15
2023-09-23T11:38:08.746Z,18.15
2023-09-23T11:39:08.678Z,18.17
2023-09-23T11:40:08.765Z,18.13
2023-09-23T11:41:08.652Z,18.10
2023-09-23T11:42:08.646Z,18.04
2023-09-23T11:43:08.614Z,18.02
2023-09-23T11:44:08.628Z,17.97
2023-09-23T11:45:08.630Z,17.89
2023-09-23T11:46:08.674Z,17.89
2023-09-23T11:47:08.643Z,17.92
2023-09-23T11:48:08.557Z,17.95
2023-09-23T11:49:08.577Z,17.97
2023-09-23T11:50:08.542Z,17.91
2023-09-23T11:51:08.565Z,17.94
2023-09-23T11:52:08.540Z,17.99
2023-09-23T11:53:08.577Z,18.03
2023-09-23T11:54:08.618Z,18.10
2023-09-23T11:55:08.475Z,18.12
2023-09-23T11:56:08.575Z,18.15
2023-09-23T11:57:08.472Z,18.12
2023-09-23T11:58:08.488Z,18.15
2023-09-23T11:59:09.082Z,18.17
2023-09-23T12:00:08.493Z,18.24
2023-09-23T12:01:08.398Z,18.31
2023-09-23T12:02:08.511Z,18.25
2023-09-23T12:03:08.486Z,18.29
2023-09-23T12:04:08.445Z,18.31
2023-09-23T12:05:08.580Z,18.27
2023-09-23T12:06:08.385Z,18.19
2023-09-23T12:07:08.397Z,18.13
2023-09-23T12:08:08.334Z,18.06
2023-09-23T12:09:08.344Z,17.97
2023-09-23T12:10:08.287Z,17.99
2023-09-23T12:11:08.362Z,17.97
2023-09-23T12:12:08.277Z,17.87
2023-09-23T12:13:08.414Z,17.81
2023-09-23T12:14:08.349Z,17.70
2023-09-23T12:15:08.251Z,17.63
2023-09-23T12:16:08.362Z,17.55
2023-09-23T12:17:08.310Z,17.53
2023-09-23T12:18:08.264Z,17.54
2023-09-23T12:19:08.225Z,17.55
2023-09-23T12:20:08.277Z,17.54
2023-09-23T12:21:08.192Z,17.54
2023-09-23T12:22:08.206Z,17.51
2023-09-23T12:23:08.155Z,17.48
2023-09-23T12:24:08.166Z,17.41
2023-09-23T12:25:08.162Z,17.44
2023-09-23T12:26:08.199Z,17.48
2023-09-23T12:27:08.187Z,17.53
2023-09-23T12:28:08.160Z,17.54
2023-09-23T12:29:08.153Z,17.63
2023-09-23T12:30:08.087Z,17.66
2023-09-23T12:31:08.098Z,17.69
2023-09-23T12:32:08.180Z,17.76
2023-09-23T12:33:08.077Z,17.79
2023-09-23T12:34:08.067Z,17.81
2023-09-23T12:35:08.098Z,17.84
2023-09-23T12:36:08.098Z,17.88
2023-09-23T12:37:08.045Z,17.92
2023-09-23T12:38:08.066Z,17.95
2023-09-23T12:39:08.856Z,17.99
2023-09-23T12:40:07.959Z,17.99
2023-09-23T12:41:08.028Z,17.84
2023-09-23T12:42:07.962Z,17.71
2023-09-23T12:43:07.967Z,17.70
2023-09-23T12:44:08.042Z,17.70
2023-09-23T12:45:07.915Z,17.69
2023-09-23T12:46:08.000Z,17.70
2023-09-23T12:47:07.994Z,17.70
2023-09-23T12:48:07.941Z,17.71
2023-09-23T12:49:07.989Z,17.73
2023-09-23T12:50:07.883Z,17.78
2023-09-23T12:51:07.846Z,17.81
2023-09-23T12:52:07.859Z,17.87